sensor_id;sensor_type;location;lat;lon;timestamp;P1;durP1;ratioP1;P2;durP2;ratioP2
13981;SDS011;7065;50.880;5.502;2022-12-07T00:01:48;25.92;;;21.38;;
13981;SDS011;7065;50.880;5.502;2022-12-07T00:04:14;27.30;;;21.10;;
13981;SDS011;7065;50.880;5.502;2022-12-07T00:06:42;26.77;;;21.02;;
13981;SDS011;7065;50.880;5.502;2022-12-07T00:09:11;30.70;;;22.20;;
13981;SDS011;7065;50.880;5.502;2022-12-07T00:11:41;30.83;;;23.20;;
13981;SDS011;7065;50.880;5.502;2022-12-07T00:14:07;31.10;;;21.63;;
13981;SDS011;7065;50.880;5.502;2022-12-07T00:16:36;28.67;;;21.77;;
13981;SDS011;7065;50.880;5.502;2022-12-07T00:19:02;29.02;;;21.88;;
13981;SDS011;7065;50.880;5.502;2022-12-07T00:21:30;28.73;;;22.00;;
13981;SDS011;7065;50.880;5.502;2022-12-07T00:23:58;28.60;;;21.60;;
13981;SDS011;7065;50.880;5.502;2022-12-07T00:26:31;30.77;;;22.05;;
13981;SDS011;7065;50.880;5.502;2022-12-07T00:29:02;29.55;;;22.17;;
13981;SDS011;7065;50.880;5.502;2022-12-07T00:31:40;29.40;;;22.30;;
13981;SDS011;7065;50.880;5.502;2022-12-07T00:34:06;31.80;;;23.70;;
13981;SDS011;7065;50.880;5.502;2022-12-07T00:36:36;31.90;;;23.08;;
13981;SDS011;7065;50.880;5.502;2022-12-07T00:39:02;35.42;;;24.52;;
13981;SDS011;7065;50.880;5.502;2022-12-07T00:41:29;31.13;;;23.98;;
13981;SDS011;7065;50.880;5.502;2022-12-07T00:43:55;32.47;;;23.30;;
13981;SDS011;7065;50.880;5.502;2022-12-07T00:46:22;34.65;;;23.52;;
13981;SDS011;7065;50.880;5.502;2022-12-07T00:48:48;29.90;;;23.38;;
13981;SDS011;7065;50.880;5.502;2022-12-07T00:51:16;32.10;;;23.88;;
13981;SDS011;7065;50.880;5.502;2022-12-07T00:53:43;31.75;;;24.30;;
13981;SDS011;7065;50.880;5.502;2022-12-07T00:56:19;31.05;;;24.30;;
13981;SDS011;7065;50.880;5.502;2022-12-07T00:58:56;34.85;;;24.80;;
13981;SDS011;7065;50.880;5.502;2022-12-07T01:01:24;36.20;;;24.48;;
13981;SDS011;7065;50.880;5.502;2022-12-07T01:03:51;32.67;;;24.60;;
13981;SDS011;7065;50.880;5.502;2022-12-07T01:06:18;34.78;;;24.70;;
13981;SDS011;7065;50.880;5.502;2022-12-07T01:08:45;35.15;;;25.13;;
13981;SDS011;7065;50.880;5.502;2022-12-07T01:11:12;38.05;;;24.00;;
13981;SDS011;7065;50.880;5.502;2022-12-07T01:13:40;33.10;;;24.58;;
13981;SDS011;7065;50.880;5.502;2022-12-07T01:16:06;36.60;;;25.77;;
13981;SDS011;7065;50.880;5.502;2022-12-07T01:18:34;34.35;;;24.42;;
13981;SDS011;7065;50.880;5.502;2022-12-07T01:21:02;35.50;;;23.98;;
13981;SDS011;7065;50.880;5.502;2022-12-07T01:23:30;33.85;;;24.95;;
13981;SDS011;7065;50.880;5.502;2022-12-07T01:25:57;34.88;;;25.45;;
13981;SDS011;7065;50.880;5.502;2022-12-07T01:28:24;36.20;;;25.85;;
13981;SDS011;7065;50.880;5.502;2022-12-07T01:30:56;33.88;;;26.27;;
13981;SDS011;7065;50.880;5.502;2022-12-07T01:33:22;36.42;;;25.70;;
13981;SDS011;7065;50.880;5.502;2022-12-07T01:35:48;35.80;;;27.90;;
13981;SDS011;7065;50.880;5.502;2022-12-07T01:38:14;44.35;;;27.52;;
13981;SDS011;7065;50.880;5.502;2022-12-07T01:40:39;34.78;;;25.83;;
13981;SDS011;7065;50.880;5.502;2022-12-07T01:43:13;33.67;;;24.50;;
13981;SDS011;7065;50.880;5.502;2022-12-07T01:45:42;35.47;;;26.50;;
13981;SDS011;7065;50.880;5.502;2022-12-07T01:48:09;37.30;;;26.92;;
13981;SDS011;7065;50.880;5.502;2022-12-07T01:50:37;38.08;;;27.17;;
13981;SDS011;7065;50.880;5.502;2022-12-07T01:53:05;35.80;;;26.85;;
13981;SDS011;7065;50.880;5.502;2022-12-07T01:55:33;33.30;;;25.25;;
13981;SDS011;7065;50.880;5.502;2022-12-07T01:58:01;37.15;;;26.85;;
13981;SDS011;7065;50.880;5.502;2022-12-07T02:00:27;36.05;;;26.70;;
13981;SDS011;7065;50.880;5.502;2022-12-07T02:03:15;38.40;;;25.98;;
13981;SDS011;7065;50.880;5.502;2022-12-07T02:05:44;38.30;;;27.80;;
13981;SDS011;7065;50.880;5.502;2022-12-07T02:08:13;36.33;;;27.17;;
13981;SDS011;7065;50.880;5.502;2022-12-07T02:10:40;38.08;;;27.17;;
13981;SDS011;7065;50.880;5.502;2022-12-07T02:13:08;38.53;;;27.58;;
13981;SDS011;7065;50.880;5.502;2022-12-07T02:29:13;38.65;;;26.80;;
13981;SDS011;7065;50.880;5.502;2022-12-07T02:31:46;38.90;;;28.08;;
13981;SDS011;7065;50.880;5.502;2022-12-07T02:36:57;39.47;;;27.10;;
13981;SDS011;7065;50.880;5.502;2022-12-07T02:39:43;36.55;;;27.77;;
13981;SDS011;7065;50.880;5.502;2022-12-07T02:42:19;37.10;;;28.10;;
13981;SDS011;7065;50.880;5.502;2022-12-07T02:44:52;35.20;;;26.38;;
13981;SDS011;7065;50.880;5.502;2022-12-07T02:47:18;40.53;;;27.33;;
13981;SDS011;7065;50.880;5.502;2022-12-07T02:49:47;42.53;;;28.40;;
13981;SDS011;7065;50.880;5.502;2022-12-07T02:52:14;36.50;;;28.40;;
13981;SDS011;7065;50.880;5.502;2022-12-07T02:54:40;39.08;;;28.30;;
13981;SDS011;7065;50.880;5.502;2022-12-07T03:11:03;37.78;;;28.65;;
13981;SDS011;7065;50.880;5.502;2022-12-07T03:13:49;39.40;;;28.10;;
13981;SDS011;7065;50.880;5.502;2022-12-07T03:16:32;40.38;;;28.10;;
13981;SDS011;7065;50.880;5.502;2022-12-07T03:19:23;39.78;;;30.27;;
13981;SDS011;7065;50.880;5.502;2022-12-07T03:21:56;41.13;;;30.23;;
13981;SDS011;7065;50.880;5.502;2022-12-07T03:24:26;41.38;;;29.90;;
13981;SDS011;7065;50.880;5.502;2022-12-07T03:26:59;40.65;;;30.30;;
13981;SDS011;7065;50.880;5.502;2022-12-07T03:29:36;40.15;;;31.15;;
13981;SDS011;7065;50.880;5.502;2022-12-07T03:32:13;42.60;;;30.15;;
13981;SDS011;7065;50.880;5.502;2022-12-07T03:34:53;40.50;;;31.35;;
13981;SDS011;7065;50.880;5.502;2022-12-07T03:42:55;45.88;;;33.38;;
13981;SDS011;7065;50.880;5.502;2022-12-07T03:45:26;44.92;;;33.45;;
13981;SDS011;7065;50.880;5.502;2022-12-07T03:50:54;47.00;;;33.25;;
13981;SDS011;7065;50.880;5.502;2022-12-07T03:53:31;46.55;;;32.85;;
13981;SDS011;7065;50.880;5.502;2022-12-07T03:56:02;42.60;;;31.98;;
13981;SDS011;7065;50.880;5.502;2022-12-07T03:58:28;44.45;;;30.90;;
13981;SDS011;7065;50.880;5.502;2022-12-07T04:00:55;44.03;;;31.70;;
13981;SDS011;7065;50.880;5.502;2022-12-07T04:03:21;48.63;;;33.60;;
13981;SDS011;7065;50.880;5.502;2022-12-07T04:05:47;40.22;;;31.90;;
13981;SDS011;7065;50.880;5.502;2022-12-07T04:08:13;45.38;;;32.80;;
13981;SDS011;7065;50.880;5.502;2022-12-07T04:10:39;49.40;;;33.00;;
13981;SDS011;7065;50.880;5.502;2022-12-07T04:13:05;47.72;;;33.67;;
13981;SDS011;7065;50.880;5.502;2022-12-07T04:15:32;48.10;;;34.63;;
13981;SDS011;7065;50.880;5.502;2022-12-07T04:17:58;45.72;;;32.00;;
13981;SDS011;7065;50.880;5.502;2022-12-07T04:20:23;46.10;;;32.95;;
13981;SDS011;7065;50.880;5.502;2022-12-07T04:22:49;48.80;;;31.98;;
13981;SDS011;7065;50.880;5.502;2022-12-07T04:25:15;45.60;;;32.30;;
13981;SDS011;7065;50.880;5.502;2022-12-07T04:27:40;43.80;;;31.85;;
13981;SDS011;7065;50.880;5.502;2022-12-07T04:30:06;46.88;;;31.88;;
13981;SDS011;7065;50.880;5.502;2022-12-07T04:32:32;41.33;;;31.23;;
13981;SDS011;7065;50.880;5.502;2022-12-07T04:34:58;46.33;;;32.63;;
13981;SDS011;7065;50.880;5.502;2022-12-07T04:37:23;43.03;;;31.40;;
13981;SDS011;7065;50.880;5.502;2022-12-07T04:39:49;39.65;;;30.48;;
13981;SDS011;7065;50.880;5.502;2022-12-07T04:42:15;44.45;;;31.13;;
13981;SDS011;7065;50.880;5.502;2022-12-07T04:44:41;44.97;;;32.97;;
13981;SDS011;7065;50.880;5.502;2022-12-07T04:47:06;43.90;;;31.60;;
13981;SDS011;7065;50.880;5.502;2022-12-07T04:49:33;47.03;;;33.40;;
13981;SDS011;7065;50.880;5.502;2022-12-07T04:51:59;42.65;;;31.70;;
13981;SDS011;7065;50.880;5.502;2022-12-07T04:54:24;44.08;;;32.20;;
13981;SDS011;7065;50.880;5.502;2022-12-07T04:56:50;44.67;;;33.03;;
13981;SDS011;7065;50.880;5.502;2022-12-07T04:59:16;45.78;;;32.80;;
13981;SDS011;7065;50.880;5.502;2022-12-07T05:01:42;45.92;;;32.38;;
13981;SDS011;7065;50.880;5.502;2022-12-07T05:04:08;44.47;;;31.77;;
13981;SDS011;7065;50.880;5.502;2022-12-07T05:06:34;46.00;;;32.40;;
13981;SDS011;7065;50.880;5.502;2022-12-07T05:09:00;44.92;;;33.20;;
13981;SDS011;7065;50.880;5.502;2022-12-07T05:11:27;48.15;;;33.35;;
13981;SDS011;7065;50.880;5.502;2022-12-07T05:14:38;40.78;;;31.58;;
13981;SDS011;7065;50.880;5.502;2022-12-07T05:16:56;43.65;;;31.45;;
13981;SDS011;7065;50.880;5.502;2022-12-07T05:19:22;46.50;;;32.47;;
13981;SDS011;7065;50.880;5.502;2022-12-07T05:21:49;48.97;;;33.92;;
13981;SDS011;7065;50.880;5.502;2022-12-07T05:24:15;43.90;;;32.88;;
13981;SDS011;7065;50.880;5.502;2022-12-07T05:26:41;44.88;;;32.35;;
13981;SDS011;7065;50.880;5.502;2022-12-07T05:29:10;48.00;;;34.22;;
13981;SDS011;7065;50.880;5.502;2022-12-07T05:31:39;45.97;;;32.92;;
13981;SDS011;7065;50.880;5.502;2022-12-07T05:34:05;47.20;;;31.88;;
13981;SDS011;7065;50.880;5.502;2022-12-07T05:36:31;41.72;;;30.20;;
13981;SDS011;7065;50.880;5.502;2022-12-07T05:38:56;44.85;;;31.13;;
13981;SDS011;7065;50.880;5.502;2022-12-07T05:41:22;47.83;;;33.95;;
13981;SDS011;7065;50.880;5.502;2022-12-07T05:44:07;46.70;;;32.78;;
13981;SDS011;7065;50.880;5.502;2022-12-07T05:46:32;47.38;;;34.83;;
13981;SDS011;7065;50.880;5.502;2022-12-07T05:48:59;47.95;;;34.35;;
13981;SDS011;7065;50.880;5.502;2022-12-07T05:51:25;53.35;;;34.15;;
13981;SDS011;7065;50.880;5.502;2022-12-07T05:53:50;51.88;;;35.95;;
13981;SDS011;7065;50.880;5.502;2022-12-07T05:56:16;52.50;;;34.72;;
13981;SDS011;7065;50.880;5.502;2022-12-07T05:58:42;56.38;;;36.65;;
13981;SDS011;7065;50.880;5.502;2022-12-07T06:01:26;56.28;;;36.90;;
13981;SDS011;7065;50.880;5.502;2022-12-07T06:03:53;58.10;;;37.08;;
13981;SDS011;7065;50.880;5.502;2022-12-07T06:06:19;60.22;;;38.60;;
13981;SDS011;7065;50.880;5.502;2022-12-07T06:08:44;66.43;;;39.05;;
13981;SDS011;7065;50.880;5.502;2022-12-07T06:11:11;73.85;;;40.58;;
13981;SDS011;7065;50.880;5.502;2022-12-07T06:13:55;61.50;;;38.90;;
13981;SDS011;7065;50.880;5.502;2022-12-07T06:16:21;67.80;;;40.38;;
13981;SDS011;7065;50.880;5.502;2022-12-07T06:18:46;63.10;;;39.05;;
13981;SDS011;7065;50.880;5.502;2022-12-07T06:21:12;71.97;;;39.78;;
13981;SDS011;7065;50.880;5.502;2022-12-07T06:23:37;67.53;;;40.03;;
13981;SDS011;7065;50.880;5.502;2022-12-07T06:26:03;60.50;;;40.33;;
13981;SDS011;7065;50.880;5.502;2022-12-07T06:28:29;62.30;;;38.95;;
13981;SDS011;7065;50.880;5.502;2022-12-07T06:30:58;67.57;;;38.83;;
13981;SDS011;7065;50.880;5.502;2022-12-07T06:33:25;60.70;;;38.80;;
13981;SDS011;7065;50.880;5.502;2022-12-07T06:35:51;65.00;;;38.40;;
13981;SDS011;7065;50.880;5.502;2022-12-07T06:38:17;59.28;;;39.97;;
13981;SDS011;7065;50.880;5.502;2022-12-07T06:40:42;62.95;;;39.72;;
13981;SDS011;7065;50.880;5.502;2022-12-07T06:43:09;63.25;;;38.95;;
13981;SDS011;7065;50.880;5.502;2022-12-07T06:45:34;60.58;;;37.58;;
13981;SDS011;7065;50.880;5.502;2022-12-07T06:48:00;56.60;;;36.40;;
13981;SDS011;7065;50.880;5.502;2022-12-07T06:50:26;57.85;;;37.33;;
13981;SDS011;7065;50.880;5.502;2022-12-07T06:52:52;53.83;;;36.78;;
13981;SDS011;7065;50.880;5.502;2022-12-07T06:55:17;52.20;;;35.97;;
13981;SDS011;7065;50.880;5.502;2022-12-07T06:57:43;55.22;;;36.83;;
13981;SDS011;7065;50.880;5.502;2022-12-07T07:00:09;57.72;;;37.42;;
13981;SDS011;7065;50.880;5.502;2022-12-07T07:02:36;53.63;;;35.75;;
13981;SDS011;7065;50.880;5.502;2022-12-07T07:05:02;57.28;;;36.17;;
13981;SDS011;7065;50.880;5.502;2022-12-07T07:07:28;54.55;;;35.58;;
13981;SDS011;7065;50.880;5.502;2022-12-07T07:09:54;55.28;;;36.03;;
13981;SDS011;7065;50.880;5.502;2022-12-07T07:12:19;55.65;;;37.67;;
13981;SDS011;7065;50.880;5.502;2022-12-07T07:14:45;53.17;;;35.15;;
13981;SDS011;7065;50.880;5.502;2022-12-07T07:17:11;56.13;;;36.70;;
13981;SDS011;7065;50.880;5.502;2022-12-07T07:19:36;55.83;;;35.75;;
13981;SDS011;7065;50.880;5.502;2022-12-07T07:22:02;52.65;;;35.63;;
13981;SDS011;7065;50.880;5.502;2022-12-07T07:24:28;53.08;;;34.33;;
13981;SDS011;7065;50.880;5.502;2022-12-07T07:26:54;57.15;;;36.33;;
13981;SDS011;7065;50.880;5.502;2022-12-07T07:29:21;55.20;;;37.08;;
13981;SDS011;7065;50.880;5.502;2022-12-07T07:31:46;51.10;;;34.20;;
13981;SDS011;7065;50.880;5.502;2022-12-07T07:34:12;53.35;;;35.80;;
13981;SDS011;7065;50.880;5.502;2022-12-07T07:36:38;55.95;;;36.05;;
13981;SDS011;7065;50.880;5.502;2022-12-07T07:39:03;55.35;;;34.72;;
13981;SDS011;7065;50.880;5.502;2022-12-07T07:41:30;58.70;;;36.72;;
13981;SDS011;7065;50.880;5.502;2022-12-07T07:43:56;55.65;;;34.92;;
13981;SDS011;7065;50.880;5.502;2022-12-07T07:46:22;51.42;;;34.63;;
13981;SDS011;7065;50.880;5.502;2022-12-07T07:48:47;53.85;;;36.45;;
13981;SDS011;7065;50.880;5.502;2022-12-07T07:51:13;58.97;;;34.03;;
13981;SDS011;7065;50.880;5.502;2022-12-07T07:53:39;55.30;;;36.33;;
13981;SDS011;7065;50.880;5.502;2022-12-07T07:56:04;59.78;;;35.15;;
13981;SDS011;7065;50.880;5.502;2022-12-07T07:58:30;53.38;;;33.22;;
13981;SDS011;7065;50.880;5.502;2022-12-07T08:00:56;45.47;;;31.35;;
13981;SDS011;7065;50.880;5.502;2022-12-07T08:03:22;47.47;;;30.05;;
13981;SDS011;7065;50.880;5.502;2022-12-07T08:05:47;53.03;;;33.67;;
13981;SDS011;7065;50.880;5.502;2022-12-07T08:08:13;48.85;;;32.40;;
13981;SDS011;7065;50.880;5.502;2022-12-07T08:10:39;49.75;;;32.17;;
13981;SDS011;7065;50.880;5.502;2022-12-07T08:13:04;50.65;;;32.40;;
13981;SDS011;7065;50.880;5.502;2022-12-07T08:15:38;50.28;;;32.47;;
13981;SDS011;7065;50.880;5.502;2022-12-07T08:18:04;47.20;;;29.58;;
13981;SDS011;7065;50.880;5.502;2022-12-07T08:20:30;51.65;;;32.17;;
13981;SDS011;7065;50.880;5.502;2022-12-07T08:22:57;50.00;;;31.45;;
13981;SDS011;7065;50.880;5.502;2022-12-07T08:25:23;51.53;;;32.45;;
13981;SDS011;7065;50.880;5.502;2022-12-07T08:27:49;50.33;;;32.40;;
13981;SDS011;7065;50.880;5.502;2022-12-07T08:30:16;49.28;;;32.17;;
13981;SDS011;7065;50.880;5.502;2022-12-07T08:32:42;50.30;;;31.52;;
13981;SDS011;7065;50.880;5.502;2022-12-07T08:35:10;54.38;;;32.80;;
13981;SDS011;7065;50.880;5.502;2022-12-07T08:37:35;51.67;;;32.78;;
13981;SDS011;7065;50.880;5.502;2022-12-07T08:40:01;51.35;;;32.55;;
13981;SDS011;7065;50.880;5.502;2022-12-07T08:42:28;49.38;;;33.13;;
13981;SDS011;7065;50.880;5.502;2022-12-07T08:45:02;50.85;;;33.92;;
13981;SDS011;7065;50.880;5.502;2022-12-07T08:47:32;55.88;;;33.13;;
13981;SDS011;7065;50.880;5.502;2022-12-07T08:50:00;52.38;;;33.95;;
13981;SDS011;7065;50.880;5.502;2022-12-07T08:52:29;52.67;;;34.22;;
13981;SDS011;7065;50.880;5.502;2022-12-07T08:54:55;51.47;;;34.15;;
13981;SDS011;7065;50.880;5.502;2022-12-07T08:57:21;57.28;;;34.75;;
13981;SDS011;7065;50.880;5.502;2022-12-07T08:59:47;53.20;;;35.17;;
13981;SDS011;7065;50.880;5.502;2022-12-07T09:02:13;57.42;;;35.10;;
13981;SDS011;7065;50.880;5.502;2022-12-07T09:04:38;50.65;;;34.35;;
13981;SDS011;7065;50.880;5.502;2022-12-07T09:07:04;53.10;;;35.60;;
13981;SDS011;7065;50.880;5.502;2022-12-07T09:09:31;50.47;;;34.38;;
13981;SDS011;7065;50.880;5.502;2022-12-07T09:11:57;49.80;;;33.42;;
13981;SDS011;7065;50.880;5.502;2022-12-07T09:14:22;49.60;;;33.92;;
13981;SDS011;7065;50.880;5.502;2022-12-07T09:16:48;50.75;;;34.53;;
13981;SDS011;7065;50.880;5.502;2022-12-07T09:19:14;44.00;;;32.10;;
13981;SDS011;7065;50.880;5.502;2022-12-07T09:21:40;48.33;;;32.38;;
13981;SDS011;7065;50.880;5.502;2022-12-07T09:24:06;50.28;;;33.40;;
13981;SDS011;7065;50.880;5.502;2022-12-07T09:26:32;48.95;;;31.75;;
13981;SDS011;7065;50.880;5.502;2022-12-07T09:29:01;48.08;;;31.52;;
13981;SDS011;7065;50.880;5.502;2022-12-07T09:31:27;41.53;;;30.02;;
13981;SDS011;7065;50.880;5.502;2022-12-07T09:33:54;43.45;;;29.80;;
13981;SDS011;7065;50.880;5.502;2022-12-07T09:36:20;40.60;;;28.30;;
13981;SDS011;7065;50.880;5.502;2022-12-07T09:38:46;38.10;;;27.70;;
13981;SDS011;7065;50.880;5.502;2022-12-07T09:41:12;39.75;;;28.70;;
13981;SDS011;7065;50.880;5.502;2022-12-07T09:43:37;39.38;;;28.58;;
13981;SDS011;7065;50.880;5.502;2022-12-07T09:46:05;45.38;;;31.13;;
13981;SDS011;7065;50.880;5.502;2022-12-07T09:48:34;40.13;;;29.35;;
13981;SDS011;7065;50.880;5.502;2022-12-07T09:51:09;44.50;;;30.05;;
13981;SDS011;7065;50.880;5.502;2022-12-07T09:53:43;43.80;;;29.92;;
13981;SDS011;7065;50.880;5.502;2022-12-07T09:56:11;38.15;;;29.15;;
13981;SDS011;7065;50.880;5.502;2022-12-07T09:58:39;41.97;;;28.60;;
13981;SDS011;7065;50.880;5.502;2022-12-07T10:03:36;37.65;;;26.77;;
13981;SDS011;7065;50.880;5.502;2022-12-07T10:06:03;36.50;;;25.20;;
13981;SDS011;7065;50.880;5.502;2022-12-07T10:08:30;33.45;;;25.17;;
13981;SDS011;7065;50.880;5.502;2022-12-07T10:10:57;31.52;;;23.20;;
13981;SDS011;7065;50.880;5.502;2022-12-07T10:13:37;36.80;;;24.17;;
13981;SDS011;7065;50.880;5.502;2022-12-07T10:16:04;31.60;;;22.13;;
13981;SDS011;7065;50.880;5.502;2022-12-07T10:23:32;28.92;;;23.35;;
13981;SDS011;7065;50.880;5.502;2022-12-07T10:25:58;31.13;;;21.75;;
13981;SDS011;7065;50.880;5.502;2022-12-07T10:28:33;32.05;;;23.80;;
13981;SDS011;7065;50.880;5.502;2022-12-07T10:31:01;30.08;;;21.23;;
13981;SDS011;7065;50.880;5.502;2022-12-07T10:39:13;26.38;;;21.08;;
13981;SDS011;7065;50.880;5.502;2022-12-07T10:44:24;31.63;;;21.63;;
13981;SDS011;7065;50.880;5.502;2022-12-07T10:52:52;20.38;;;15.48;;
13981;SDS011;7065;50.880;5.502;2022-12-07T10:58:40;20.67;;;14.27;;
13981;SDS011;7065;50.880;5.502;2022-12-07T11:04:03;17.13;;;12.40;;
13981;SDS011;7065;50.880;5.502;2022-12-07T11:34:50;17.45;;;12.90;;
13981;SDS011;7065;50.880;5.502;2022-12-07T11:37:21;18.88;;;13.20;;
13981;SDS011;7065;50.880;5.502;2022-12-07T11:42:47;17.63;;;12.98;;
13981;SDS011;7065;50.880;5.502;2022-12-07T11:45:27;21.48;;;14.13;;
13981;SDS011;7065;50.880;5.502;2022-12-07T11:48:06;19.52;;;13.05;;
13981;SDS011;7065;50.880;5.502;2022-12-07T11:50:54;15.23;;;12.13;;
13981;SDS011;7065;50.880;5.502;2022-12-07T11:56:14;16.75;;;11.95;;
13981;SDS011;7065;50.880;5.502;2022-12-07T12:04:13;20.02;;;12.82;;
13981;SDS011;7065;50.880;5.502;2022-12-07T12:06:48;16.48;;;12.43;;
13981;SDS011;7065;50.880;5.502;2022-12-07T12:09:35;17.05;;;12.45;;
13981;SDS011;7065;50.880;5.502;2022-12-07T12:23:15;17.45;;;11.63;;
13981;SDS011;7065;50.880;5.502;2022-12-07T12:25:43;17.90;;;11.80;;
13981;SDS011;7065;50.880;5.502;2022-12-07T12:28:23;14.15;;;11.50;;
13981;SDS011;7065;50.880;5.502;2022-12-07T12:33:43;16.70;;;11.82;;
13981;SDS011;7065;50.880;5.502;2022-12-07T12:51:50;11.57;;;8.65;;
13981;SDS011;7065;50.880;5.502;2022-12-07T12:57:37;14.10;;;8.27;;
13981;SDS011;7065;50.880;5.502;2022-12-07T13:00:22;12.82;;;8.57;;
13981;SDS011;7065;50.880;5.502;2022-12-07T13:02:50;12.40;;;7.45;;
13981;SDS011;7065;50.880;5.502;2022-12-07T13:05:20;14.48;;;7.20;;
13981;SDS011;7065;50.880;5.502;2022-12-07T13:10:40;9.55;;;6.40;;
13981;SDS011;7065;50.880;5.502;2022-12-07T13:23:36;9.43;;;6.90;;
13981;SDS011;7065;50.880;5.502;2022-12-07T13:28:48;10.82;;;7.00;;
13981;SDS011;7065;50.880;5.502;2022-12-07T13:33:58;8.77;;;6.25;;
13981;SDS011;7065;50.880;5.502;2022-12-07T13:36:29;11.52;;;6.10;;
13981;SDS011;7065;50.880;5.502;2022-12-07T13:39:22;9.07;;;5.25;;
13981;SDS011;7065;50.880;5.502;2022-12-07T13:41:56;6.18;;;4.32;;
13981;SDS011;7065;50.880;5.502;2022-12-07T13:44:25;5.30;;;3.42;;
13981;SDS011;7065;50.880;5.502;2022-12-07T13:49:32;4.53;;;2.75;;
13981;SDS011;7065;50.880;5.502;2022-12-07T13:54:48;4.82;;;2.92;;
13981;SDS011;7065;50.880;5.502;2022-12-07T13:57:20;4.03;;;2.60;;
13981;SDS011;7065;50.880;5.502;2022-12-07T13:59:47;6.85;;;3.13;;
13981;SDS011;7065;50.880;5.502;2022-12-07T14:02:25;6.13;;;3.10;;
13981;SDS011;7065;50.880;5.502;2022-12-07T14:07:54;5.65;;;2.67;;
13981;SDS011;7065;50.880;5.502;2022-12-07T14:13:00;5.47;;;2.53;;
13981;SDS011;7065;50.880;5.502;2022-12-07T14:15:31;7.70;;;3.53;;
13981;SDS011;7065;50.880;5.502;2022-12-07T14:17:59;7.68;;;3.00;;
13981;SDS011;7065;50.880;5.502;2022-12-07T14:20:32;4.88;;;2.35;;
13981;SDS011;7065;50.880;5.502;2022-12-07T14:23:00;5.68;;;3.28;;
13981;SDS011;7065;50.880;5.502;2022-12-07T14:25:43;5.18;;;3.10;;
13981;SDS011;7065;50.880;5.502;2022-12-07T14:28:27;5.47;;;2.78;;
13981;SDS011;7065;50.880;5.502;2022-12-07T14:30:54;6.28;;;2.75;;
13981;SDS011;7065;50.880;5.502;2022-12-07T14:33:20;4.85;;;2.17;;
13981;SDS011;7065;50.880;5.502;2022-12-07T14:35:47;3.95;;;2.38;;
13981;SDS011;7065;50.880;5.502;2022-12-07T14:38:12;4.05;;;2.70;;
13981;SDS011;7065;50.880;5.502;2022-12-07T14:40:38;4.35;;;2.10;;
13981;SDS011;7065;50.880;5.502;2022-12-07T14:43:05;4.18;;;1.70;;
13981;SDS011;7065;50.880;5.502;2022-12-07T14:45:35;3.45;;;1.90;;
13981;SDS011;7065;50.880;5.502;2022-12-07T14:48:01;4.60;;;2.17;;
13981;SDS011;7065;50.880;5.502;2022-12-07T14:50:28;5.55;;;3.22;;
13981;SDS011;7065;50.880;5.502;2022-12-07T14:52:55;6.53;;;2.33;;
13981;SDS011;7065;50.880;5.502;2022-12-07T14:55:25;3.17;;;2.25;;
13981;SDS011;7065;50.880;5.502;2022-12-07T14:57:52;3.72;;;2.72;;
13981;SDS011;7065;50.880;5.502;2022-12-07T15:00:18;7.53;;;3.42;;
13981;SDS011;7065;50.880;5.502;2022-12-07T15:02:46;6.55;;;3.95;;
13981;SDS011;7065;50.880;5.502;2022-12-07T15:05:12;10.27;;;4.65;;
13981;SDS011;7065;50.880;5.502;2022-12-07T15:07:38;8.90;;;5.50;;
13981;SDS011;7065;50.880;5.502;2022-12-07T15:10:05;8.32;;;5.72;;
13981;SDS011;7065;50.880;5.502;2022-12-07T15:12:37;6.95;;;5.45;;
13981;SDS011;7065;50.880;5.502;2022-12-07T15:15:03;7.57;;;5.60;;
13981;SDS011;7065;50.880;5.502;2022-12-07T15:17:29;10.25;;;5.57;;
13981;SDS011;7065;50.880;5.502;2022-12-07T15:19:55;6.97;;;5.32;;
13981;SDS011;7065;50.880;5.502;2022-12-07T15:22:21;6.68;;;5.22;;
13981;SDS011;7065;50.880;5.502;2022-12-07T15:24:46;7.40;;;4.82;;
13981;SDS011;7065;50.880;5.502;2022-12-07T15:27:12;7.07;;;5.00;;
13981;SDS011;7065;50.880;5.502;2022-12-07T15:29:38;8.98;;;5.60;;
13981;SDS011;7065;50.880;5.502;2022-12-07T15:32:04;9.88;;;5.68;;
13981;SDS011;7065;50.880;5.502;2022-12-07T15:34:30;8.05;;;5.20;;
13981;SDS011;7065;50.880;5.502;2022-12-07T15:36:56;7.80;;;5.40;;
13981;SDS011;7065;50.880;5.502;2022-12-07T15:39:22;6.82;;;5.50;;
13981;SDS011;7065;50.880;5.502;2022-12-07T15:41:48;8.45;;;5.28;;
13981;SDS011;7065;50.880;5.502;2022-12-07T15:44:14;7.00;;;5.10;;
13981;SDS011;7065;50.880;5.502;2022-12-07T15:46:59;6.68;;;4.45;;
13981;SDS011;7065;50.880;5.502;2022-12-07T15:49:25;8.70;;;4.82;;
13981;SDS011;7065;50.880;5.502;2022-12-07T15:51:52;7.80;;;4.95;;
13981;SDS011;7065;50.880;5.502;2022-12-07T15:56:48;8.68;;;5.30;;
13981;SDS011;7065;50.880;5.502;2022-12-07T15:59:14;5.78;;;5.05;;
13981;SDS011;7065;50.880;5.502;2022-12-07T16:01:41;7.32;;;5.15;;
13981;SDS011;7065;50.880;5.502;2022-12-07T16:04:06;8.88;;;5.68;;
13981;SDS011;7065;50.880;5.502;2022-12-07T16:06:32;8.10;;;6.00;;
13981;SDS011;7065;50.880;5.502;2022-12-07T16:08:59;8.48;;;5.40;;
13981;SDS011;7065;50.880;5.502;2022-12-07T16:11:25;9.18;;;5.70;;
13981;SDS011;7065;50.880;5.502;2022-12-07T16:13:51;8.88;;;6.07;;
13981;SDS011;7065;50.880;5.502;2022-12-07T16:16:17;12.40;;;7.15;;
13981;SDS011;7065;50.880;5.502;2022-12-07T16:18:44;9.60;;;6.50;;
13981;SDS011;7065;50.880;5.502;2022-12-07T16:21:11;8.43;;;6.68;;
13981;SDS011;7065;50.880;5.502;2022-12-07T16:23:37;11.00;;;7.43;;
13981;SDS011;7065;50.880;5.502;2022-12-07T16:26:11;11.55;;;7.20;;
13981;SDS011;7065;50.880;5.502;2022-12-07T16:28:41;10.23;;;6.70;;
13981;SDS011;7065;50.880;5.502;2022-12-07T16:31:12;9.38;;;6.97;;
13981;SDS011;7065;50.880;5.502;2022-12-07T16:33:40;9.10;;;6.78;;
13981;SDS011;7065;50.880;5.502;2022-12-07T16:36:08;8.65;;;6.55;;
13981;SDS011;7065;50.880;5.502;2022-12-07T16:38:35;8.55;;;6.15;;
13981;SDS011;7065;50.880;5.502;2022-12-07T16:41:01;9.20;;;6.53;;
13981;SDS011;7065;50.880;5.502;2022-12-07T16:43:28;8.32;;;6.30;;
13981;SDS011;7065;50.880;5.502;2022-12-07T16:45:53;7.72;;;6.20;;
13981;SDS011;7065;50.880;5.502;2022-12-07T16:48:19;8.38;;;6.00;;
13981;SDS011;7065;50.880;5.502;2022-12-07T16:50:46;6.00;;;5.38;;
13981;SDS011;7065;50.880;5.502;2022-12-07T16:53:12;10.05;;;5.63;;
13981;SDS011;7065;50.880;5.502;2022-12-07T16:55:40;7.75;;;5.68;;
13981;SDS011;7065;50.880;5.502;2022-12-07T16:58:08;9.43;;;5.78;;
13981;SDS011;7065;50.880;5.502;2022-12-07T17:00:34;7.50;;;5.70;;
13981;SDS011;7065;50.880;5.502;2022-12-07T17:03:02;8.70;;;6.18;;
13981;SDS011;7065;50.880;5.502;2022-12-07T17:05:28;8.50;;;5.70;;
13981;SDS011;7065;50.880;5.502;2022-12-07T17:07:54;9.25;;;6.10;;
13981;SDS011;7065;50.880;5.502;2022-12-07T17:10:21;7.63;;;5.68;;
13981;SDS011;7065;50.880;5.502;2022-12-07T17:12:47;6.63;;;5.78;;
13981;SDS011;7065;50.880;5.502;2022-12-07T17:15:13;8.18;;;6.18;;
13981;SDS011;7065;50.880;5.502;2022-12-07T17:17:58;5.88;;;4.85;;
13981;SDS011;7065;50.880;5.502;2022-12-07T17:20:25;7.30;;;6.03;;
13981;SDS011;7065;50.880;5.502;2022-12-07T17:22:52;8.57;;;5.75;;
13981;SDS011;7065;50.880;5.502;2022-12-07T17:25:19;6.43;;;5.72;;
13981;SDS011;7065;50.880;5.502;2022-12-07T17:27:45;9.82;;;6.25;;
13981;SDS011;7065;50.880;5.502;2022-12-07T17:30:11;9.13;;;6.45;;
13981;SDS011;7065;50.880;5.502;2022-12-07T17:32:38;8.10;;;6.07;;
13981;SDS011;7065;50.880;5.502;2022-12-07T17:35:04;8.63;;;6.50;;
13981;SDS011;7065;50.880;5.502;2022-12-07T17:37:31;8.55;;;6.20;;
13981;SDS011;7065;50.880;5.502;2022-12-07T17:39:57;8.50;;;6.70;;